Flinterduin — PEBT — position and weather

sailwx.info

Track history (hours):
 
Tides and Currents Weather Stations Pressure Air Temp Water Temp Dewpoint Dewpoint Depression Visibility Wind Speed Wind Dir Waves Ship Positions

Flinterduin

Last reported at 2014-Jul-28 22:22 UTC. Time now 2014-Jul-29 10:43 UTC.
Position N 43°36' W 005°59'.

Length 112 m; beam 15 m.

Type: Cargo ship. MMSI: 246484000.

Date/timePositionNaut miles runAvg speedWind from/ knotsBaromVisibWave heightAir tempDewpointWater temp
2014-Jul-28 22:22N 43°36' W 005°59'0 0.0
2014-Jul-28 19:32N 43°36' W 005°59'2 0.2
2014-Jul-28 10:25N 43°37' W 006°00'296 8.9
2014-Jul-27 01:17N 39°36' W 009°50'4612.2
2014-Jul-26 21:28N 38°49' W 009°51'1111.8
2014-Jul-26 20:33N 38°39' W 009°50'1211.9
2014-Jul-26 19:33N 38°27' W 009°47'1612.3
2014-Jul-26 18:16N 38°12' W 009°42'811.8
2014-Jul-26 17:33N 38°04' W 009°40'1211.7
2014-Jul-26 16:33N 37°52' W 009°37'1211.7
2014-Jul-26 15:34N 37°41' W 009°33'1212.2
2014-Jul-26 14:33N 37°29' W 009°30'1312.7
2014-Jul-26 13:33N 37°17' W 009°27'1211.9
2014-Jul-26 12:33N 37°05' W 009°24'3311.1
2014-Jul-26 09:33N 36°39' W 008°58'1212.1
2014-Jul-26 08:34N 36°28' W 008°52'1212.0
2014-Jul-26 07:34N 36°16' W 008°47'1212.1
2014-Jul-26 06:33N 36°05' W 008°42'2712.3
2014-Jul-26 04:21N 35°40' W 008°30'  
Track history (hours):
 
Tides and Currents Weather Stations Pressure Air Temp Water Temp Dewpoint Dewpoint Depression Visibility Wind Speed Wind Dir Waves Ship Positions

Flinterduin

Last reported at 2014-Jul-28 22:22 UTC. Time now 2014-Jul-29 10:43 UTC.
Position N 43°36' W 005°59'.

Length 112 m; beam 15 m.

Type: Cargo ship. MMSI: 246484000.

Date/timePositionNaut miles runAvg speedWind from/ knotsBaromVisibWave heightAir tempDewpointWater temp
2014-Jul-28 22:22N 43°36' W 005°59'0 0.0
2014-Jul-28 19:32N 43°36' W 005°59'2 0.2
2014-Jul-28 10:25N 43°37' W 006°00'296 8.9
2014-Jul-27 01:17N 39°36' W 009°50'4612.2
2014-Jul-26 21:28N 38°49' W 009°51'1111.8
2014-Jul-26 20:33N 38°39' W 009°50'1211.9
2014-Jul-26 19:33N 38°27' W 009°47'1612.3
2014-Jul-26 18:16N 38°12' W 009°42'811.8
2014-Jul-26 17:33N 38°04' W 009°40'1211.7
2014-Jul-26 16:33N 37°52' W 009°37'1211.7
2014-Jul-26 15:34N 37°41' W 009°33'1212.2
2014-Jul-26 14:33N 37°29' W 009°30'1312.7
2014-Jul-26 13:33N 37°17' W 009°27'1211.9
2014-Jul-26 12:33N 37°05' W 009°24'3311.1
2014-Jul-26 09:33N 36°39' W 008°58'1212.1
2014-Jul-26 08:34N 36°28' W 008°52'1212.0
2014-Jul-26 07:34N 36°16' W 008°47'1212.1
2014-Jul-26 06:33N 36°05' W 008°42'2712.3
2014-Jul-26 04:21N 35°40' W 008°30'  

Dump ship's entire track history